sensor_id;sensor_type;location;lat;lon;timestamp;P1;durP1;ratioP1;P2;durP2;ratioP2
20391;SDS011;10355;53.688;10.078;2022-12-07T00:01:17;7.43;;;4.35;;
20391;SDS011;10355;53.688;10.078;2022-12-07T00:04:02;7.45;;;4.32;;
20391;SDS011;10355;53.688;10.078;2022-12-07T00:06:47;7.15;;;4.68;;
20391;SDS011;10355;53.688;10.078;2022-12-07T00:09:32;6.30;;;3.97;;
20391;SDS011;10355;53.688;10.078;2022-12-07T00:12:15;6.70;;;4.45;;
20391;SDS011;10355;53.688;10.078;2022-12-07T00:14:57;6.68;;;4.50;;
20391;SDS011;10355;53.688;10.078;2022-12-07T00:17:40;7.40;;;4.75;;
20391;SDS011;10355;53.688;10.078;2022-12-07T00:20:24;10.23;;;4.55;;
20391;SDS011;10355;53.688;10.078;2022-12-07T00:23:07;7.47;;;4.43;;
20391;SDS011;10355;53.688;10.078;2022-12-07T00:25:50;7.20;;;4.63;;
20391;SDS011;10355;53.688;10.078;2022-12-07T00:28:33;6.78;;;4.35;;
20391;SDS011;10355;53.688;10.078;2022-12-07T00:31:16;5.88;;;4.40;;
20391;SDS011;10355;53.688;10.078;2022-12-07T00:33:59;6.80;;;4.07;;
20391;SDS011;10355;53.688;10.078;2022-12-07T00:36:44;6.57;;;4.28;;
20391;SDS011;10355;53.688;10.078;2022-12-07T00:39:26;7.38;;;4.70;;
20391;SDS011;10355;53.688;10.078;2022-12-07T00:42:09;6.93;;;3.92;;
20391;SDS011;10355;53.688;10.078;2022-12-07T00:44:52;6.95;;;4.30;;
20391;SDS011;10355;53.688;10.078;2022-12-07T00:47:34;6.65;;;4.25;;
20391;SDS011;10355;53.688;10.078;2022-12-07T00:50:17;6.45;;;4.28;;
20391;SDS011;10355;53.688;10.078;2022-12-07T00:53:01;7.55;;;4.53;;
20391;SDS011;10355;53.688;10.078;2022-12-07T00:55:44;6.60;;;4.70;;
20391;SDS011;10355;53.688;10.078;2022-12-07T00:58:27;6.55;;;4.57;;
20391;SDS011;10355;53.688;10.078;2022-12-07T01:01:10;6.38;;;4.47;;
20391;SDS011;10355;53.688;10.078;2022-12-07T01:03:53;7.22;;;4.72;;
20391;SDS011;10355;53.688;10.078;2022-12-07T01:06:36;8.88;;;4.82;;
20391;SDS011;10355;53.688;10.078;2022-12-07T01:09:20;7.43;;;4.95;;
20391;SDS011;10355;53.688;10.078;2022-12-07T01:12:03;6.35;;;4.20;;
20391;SDS011;10355;53.688;10.078;2022-12-07T01:14:46;8.27;;;4.57;;
20391;SDS011;10355;53.688;10.078;2022-12-07T01:17:29;5.90;;;3.72;;
20391;SDS011;10355;53.688;10.078;2022-12-07T01:20:12;6.50;;;4.10;;
20391;SDS011;10355;53.688;10.078;2022-12-07T01:22:55;10.05;;;4.18;;
20391;SDS011;10355;53.688;10.078;2022-12-07T01:25:39;6.30;;;3.60;;
20391;SDS011;10355;53.688;10.078;2022-12-07T01:28:22;6.00;;;4.15;;
20391;SDS011;10355;53.688;10.078;2022-12-07T01:31:05;5.60;;;3.83;;
20391;SDS011;10355;53.688;10.078;2022-12-07T01:33:49;7.28;;;3.97;;
20391;SDS011;10355;53.688;10.078;2022-12-07T01:36:32;6.80;;;3.63;;
20391;SDS011;10355;53.688;10.078;2022-12-07T01:39:15;6.55;;;3.75;;
20391;SDS011;10355;53.688;10.078;2022-12-07T01:41:59;6.15;;;3.60;;
20391;SDS011;10355;53.688;10.078;2022-12-07T01:47:47;6.03;;;3.60;;
20391;SDS011;10355;53.688;10.078;2022-12-07T01:50:32;5.95;;;3.17;;
20391;SDS011;10355;53.688;10.078;2022-12-07T01:53:15;6.35;;;3.22;;
20391;SDS011;10355;53.688;10.078;2022-12-07T01:55:59;6.13;;;3.53;;
20391;SDS011;10355;53.688;10.078;2022-12-07T01:58:43;5.25;;;3.15;;
20391;SDS011;10355;53.688;10.078;2022-12-07T02:01:27;5.03;;;3.28;;
20391;SDS011;10355;53.688;10.078;2022-12-07T02:04:10;6.13;;;2.90;;
20391;SDS011;10355;53.688;10.078;2022-12-07T02:06:53;5.05;;;2.83;;
20391;SDS011;10355;53.688;10.078;2022-12-07T02:09:37;5.95;;;3.30;;
20391;SDS011;10355;53.688;10.078;2022-12-07T02:12:19;5.78;;;2.95;;
20391;SDS011;10355;53.688;10.078;2022-12-07T02:15:05;5.38;;;3.17;;
20391;SDS011;10355;53.688;10.078;2022-12-07T02:17:49;4.80;;;2.85;;
20391;SDS011;10355;53.688;10.078;2022-12-07T02:20:37;5.38;;;3.08;;
20391;SDS011;10355;53.688;10.078;2022-12-07T02:23:31;5.82;;;3.00;;
20391;SDS011;10355;53.688;10.078;2022-12-07T02:26:31;5.07;;;2.97;;
20391;SDS011;10355;53.688;10.078;2022-12-07T02:29:21;6.88;;;2.60;;
20391;SDS011;10355;53.688;10.078;2022-12-07T02:32:06;6.15;;;3.05;;
20391;SDS011;10355;53.688;10.078;2022-12-07T02:34:50;3.58;;;2.33;;
20391;SDS011;10355;53.688;10.078;2022-12-07T02:37:34;3.67;;;2.42;;
20391;SDS011;10355;53.688;10.078;2022-12-07T02:40:19;3.85;;;2.22;;
20391;SDS011;10355;53.688;10.078;2022-12-07T02:43:05;4.45;;;2.30;;
20391;SDS011;10355;53.688;10.078;2022-12-07T02:45:50;4.43;;;2.03;;
20391;SDS011;10355;53.688;10.078;2022-12-07T02:48:34;3.58;;;1.80;;
20391;SDS011;10355;53.688;10.078;2022-12-07T02:51:18;3.42;;;1.98;;
20391;SDS011;10355;53.688;10.078;2022-12-07T02:54:01;3.47;;;1.70;;
20391;SDS011;10355;53.688;10.078;2022-12-07T02:56:46;4.10;;;2.00;;
20391;SDS011;10355;53.688;10.078;2022-12-07T02:59:32;3.22;;;1.90;;
20391;SDS011;10355;53.688;10.078;2022-12-07T03:02:23;5.00;;;2.08;;
20391;SDS011;10355;53.688;10.078;2022-12-07T03:05:13;3.42;;;1.95;;
20391;SDS011;10355;53.688;10.078;2022-12-07T03:07:59;3.47;;;1.80;;
20391;SDS011;10355;53.688;10.078;2022-12-07T03:10:46;2.78;;;1.80;;
20391;SDS011;10355;53.688;10.078;2022-12-07T03:13:31;4.50;;;1.50;;
20391;SDS011;10355;53.688;10.078;2022-12-07T03:16:17;3.33;;;1.85;;
20391;SDS011;10355;53.688;10.078;2022-12-07T03:19:03;2.88;;;1.20;;
20391;SDS011;10355;53.688;10.078;2022-12-07T03:21:49;3.42;;;1.20;;
20391;SDS011;10355;53.688;10.078;2022-12-07T03:24:35;3.13;;;1.40;;
20391;SDS011;10355;53.688;10.078;2022-12-07T03:27:18;3.90;;;1.30;;
20391;SDS011;10355;53.688;10.078;2022-12-07T03:30:03;2.40;;;1.40;;
20391;SDS011;10355;53.688;10.078;2022-12-07T03:32:48;3.28;;;1.23;;
20391;SDS011;10355;53.688;10.078;2022-12-07T03:35:34;2.08;;;1.05;;
20391;SDS011;10355;53.688;10.078;2022-12-07T03:38:20;1.58;;;1.00;;
20391;SDS011;10355;53.688;10.078;2022-12-07T03:41:05;4.15;;;1.10;;
20391;SDS011;10355;53.688;10.078;2022-12-07T03:43:49;2.00;;;0.70;;
20391;SDS011;10355;53.688;10.078;2022-12-07T03:46:34;1.38;;;0.70;;
20391;SDS011;10355;53.688;10.078;2022-12-07T03:49:21;1.23;;;0.90;;
20391;SDS011;10355;53.688;10.078;2022-12-07T03:52:10;1.75;;;0.80;;
20391;SDS011;10355;53.688;10.078;2022-12-07T03:54:56;0.80;;;0.60;;
20391;SDS011;10355;53.688;10.078;2022-12-07T03:57:39;2.78;;;1.00;;
20391;SDS011;10355;53.688;10.078;2022-12-07T04:00:24;1.88;;;0.70;;
20391;SDS011;10355;53.688;10.078;2022-12-07T04:03:07;0.70;;;0.60;;
20391;SDS011;10355;53.688;10.078;2022-12-07T04:05:50;1.48;;;0.70;;
20391;SDS011;10355;53.688;10.078;2022-12-07T04:08:34;2.28;;;0.70;;
20391;SDS011;10355;53.688;10.078;2022-12-07T04:11:17;3.25;;;0.70;;
20391;SDS011;10355;53.688;10.078;2022-12-07T04:13:59;1.73;;;0.65;;
20391;SDS011;10355;53.688;10.078;2022-12-07T04:17:00;1.23;;;0.70;;
20391;SDS011;10355;53.688;10.078;2022-12-07T04:19:43;1.85;;;0.70;;
20391;SDS011;10355;53.688;10.078;2022-12-07T04:22:26;1.63;;;0.88;;
20391;SDS011;10355;53.688;10.078;2022-12-07T04:25:10;2.13;;;0.80;;
20391;SDS011;10355;53.688;10.078;2022-12-07T04:27:53;2.08;;;0.80;;
20391;SDS011;10355;53.688;10.078;2022-12-07T04:30:36;2.10;;;0.80;;
20391;SDS011;10355;53.688;10.078;2022-12-07T04:33:19;1.92;;;0.80;;
20391;SDS011;10355;53.688;10.078;2022-12-07T04:36:01;2.70;;;0.80;;
20391;SDS011;10355;53.688;10.078;2022-12-07T04:38:44;1.48;;;0.90;;
20391;SDS011;10355;53.688;10.078;2022-12-07T04:41:28;1.33;;;0.60;;
20391;SDS011;10355;53.688;10.078;2022-12-07T04:44:11;1.17;;;0.80;;
20391;SDS011;10355;53.688;10.078;2022-12-07T04:46:56;1.83;;;0.80;;
20391;SDS011;10355;53.688;10.078;2022-12-07T04:49:39;2.80;;;0.90;;
20391;SDS011;10355;53.688;10.078;2022-12-07T04:52:22;1.90;;;1.00;;
20391;SDS011;10355;53.688;10.078;2022-12-07T04:55:05;1.95;;;1.00;;
20391;SDS011;10355;53.688;10.078;2022-12-07T04:57:49;2.35;;;1.20;;
20391;SDS011;10355;53.688;10.078;2022-12-07T05:00:32;2.55;;;1.10;;
20391;SDS011;10355;53.688;10.078;2022-12-07T05:03:15;2.83;;;1.55;;
20391;SDS011;10355;53.688;10.078;2022-12-07T05:05:58;2.45;;;0.90;;
20391;SDS011;10355;53.688;10.078;2022-12-07T05:08:40;2.30;;;1.00;;
20391;SDS011;10355;53.688;10.078;2022-12-07T05:11:24;3.33;;;1.10;;
20391;SDS011;10355;53.688;10.078;2022-12-07T05:14:23;1.63;;;1.00;;
20391;SDS011;10355;53.688;10.078;2022-12-07T05:17:06;3.50;;;1.15;;
20391;SDS011;10355;53.688;10.078;2022-12-07T05:19:48;1.10;;;1.00;;
20391;SDS011;10355;53.688;10.078;2022-12-07T05:22:31;2.10;;;1.00;;
20391;SDS011;10355;53.688;10.078;2022-12-07T05:25:14;2.80;;;1.20;;
20391;SDS011;10355;53.688;10.078;2022-12-07T05:27:56;2.10;;;1.15;;
20391;SDS011;10355;53.688;10.078;2022-12-07T05:30:40;1.55;;;1.08;;
20391;SDS011;10355;53.688;10.078;2022-12-07T05:33:23;1.80;;;1.10;;
20391;SDS011;10355;53.688;10.078;2022-12-07T05:36:06;1.80;;;1.10;;
20391;SDS011;10355;53.688;10.078;2022-12-07T05:38:49;1.80;;;1.10;;
20391;SDS011;10355;53.688;10.078;2022-12-07T05:41:31;4.07;;;1.08;;
20391;SDS011;10355;53.688;10.078;2022-12-07T05:44:31;2.22;;;1.20;;
20391;SDS011;10355;53.688;10.078;2022-12-07T05:47:15;2.45;;;1.40;;
20391;SDS011;10355;53.688;10.078;2022-12-07T05:49:59;3.30;;;1.67;;
20391;SDS011;10355;53.688;10.078;2022-12-07T05:52:42;3.28;;;1.50;;
20391;SDS011;10355;53.688;10.078;2022-12-07T05:55:25;1.25;;;1.02;;
20391;SDS011;10355;53.688;10.078;2022-12-07T05:58:08;2.88;;;1.23;;
20391;SDS011;10355;53.688;10.078;2022-12-07T06:01:08;2.78;;;1.40;;
20391;SDS011;10355;53.688;10.078;2022-12-07T06:03:52;2.65;;;1.30;;
20391;SDS011;10355;53.688;10.078;2022-12-07T06:06:35;3.55;;;1.48;;
20391;SDS011;10355;53.688;10.078;2022-12-07T06:09:18;3.28;;;1.48;;
20391;SDS011;10355;53.688;10.078;2022-12-07T06:12:01;2.83;;;1.55;;
20391;SDS011;10355;53.688;10.078;2022-12-07T06:15:01;2.55;;;1.35;;
20391;SDS011;10355;53.688;10.078;2022-12-07T06:17:44;2.53;;;1.38;;
20391;SDS011;10355;53.688;10.078;2022-12-07T06:20:28;2.83;;;1.52;;
20391;SDS011;10355;53.688;10.078;2022-12-07T06:23:10;2.42;;;1.42;;
20391;SDS011;10355;53.688;10.078;2022-12-07T06:25:53;1.80;;;1.40;;
20391;SDS011;10355;53.688;10.078;2022-12-07T06:28:36;2.53;;;1.35;;
20391;SDS011;10355;53.688;10.078;2022-12-07T06:31:19;2.22;;;1.70;;
20391;SDS011;10355;53.688;10.078;2022-12-07T06:34:03;5.32;;;1.60;;
20391;SDS011;10355;53.688;10.078;2022-12-07T06:36:47;3.47;;;1.58;;
20391;SDS011;10355;53.688;10.078;2022-12-07T06:39:32;3.85;;;1.58;;
20391;SDS011;10355;53.688;10.078;2022-12-07T06:42:15;3.80;;;1.85;;
20391;SDS011;10355;53.688;10.078;2022-12-07T06:44:57;3.28;;;1.60;;
20391;SDS011;10355;53.688;10.078;2022-12-07T06:47:40;2.80;;;1.40;;
20391;SDS011;10355;53.688;10.078;2022-12-07T06:50:27;2.22;;;1.30;;
20391;SDS011;10355;53.688;10.078;2022-12-07T06:53:11;2.35;;;1.45;;
20391;SDS011;10355;53.688;10.078;2022-12-07T06:55:54;2.20;;;1.52;;
20391;SDS011;10355;53.688;10.078;2022-12-07T06:58:36;2.90;;;1.38;;
20391;SDS011;10355;53.688;10.078;2022-12-07T07:01:19;2.40;;;1.45;;
20391;SDS011;10355;53.688;10.078;2022-12-07T07:04:02;2.08;;;1.30;;
20391;SDS011;10355;53.688;10.078;2022-12-07T07:06:45;2.38;;;1.40;;
20391;SDS011;10355;53.688;10.078;2022-12-07T07:09:29;2.70;;;1.52;;
20391;SDS011;10355;53.688;10.078;2022-12-07T07:12:12;2.30;;;1.60;;
20391;SDS011;10355;53.688;10.078;2022-12-07T07:14:55;4.38;;;1.55;;
20391;SDS011;10355;53.688;10.078;2022-12-07T07:17:38;5.32;;;1.60;;
20391;SDS011;10355;53.688;10.078;2022-12-07T07:20:21;4.20;;;1.50;;
20391;SDS011;10355;53.688;10.078;2022-12-07T07:23:03;3.22;;;1.60;;
20391;SDS011;10355;53.688;10.078;2022-12-07T07:25:48;2.05;;;1.40;;
20391;SDS011;10355;53.688;10.078;2022-12-07T07:28:31;2.58;;;1.30;;
20391;SDS011;10355;53.688;10.078;2022-12-07T07:31:14;2.20;;;1.40;;
20391;SDS011;10355;53.688;10.078;2022-12-07T07:33:57;2.53;;;1.50;;
20391;SDS011;10355;53.688;10.078;2022-12-07T07:36:40;5.18;;;1.73;;
20391;SDS011;10355;53.688;10.078;2022-12-07T07:39:23;4.25;;;1.38;;
20391;SDS011;10355;53.688;10.078;2022-12-07T07:42:07;2.55;;;1.20;;
20391;SDS011;10355;53.688;10.078;2022-12-07T07:44:52;3.72;;;1.42;;
20391;SDS011;10355;53.688;10.078;2022-12-07T07:47:34;2.25;;;1.25;;
20391;SDS011;10355;53.688;10.078;2022-12-07T07:50:18;3.00;;;1.50;;
20391;SDS011;10355;53.688;10.078;2022-12-07T07:53:00;3.08;;;1.58;;
20391;SDS011;10355;53.688;10.078;2022-12-07T07:55:49;3.75;;;1.67;;
20391;SDS011;10355;53.688;10.078;2022-12-07T07:58:33;2.03;;;1.30;;
20391;SDS011;10355;53.688;10.078;2022-12-07T08:01:17;1.77;;;1.40;;
20391;SDS011;10355;53.688;10.078;2022-12-07T08:04:01;2.58;;;1.45;;
20391;SDS011;10355;53.688;10.078;2022-12-07T08:06:43;2.00;;;1.10;;
20391;SDS011;10355;53.688;10.078;2022-12-07T08:09:26;1.75;;;1.13;;
20391;SDS011;10355;53.688;10.078;2022-12-07T08:12:09;1.80;;;0.95;;
20391;SDS011;10355;53.688;10.078;2022-12-07T08:14:53;2.05;;;1.23;;
20391;SDS011;10355;53.688;10.078;2022-12-07T08:17:36;2.65;;;1.20;;
20391;SDS011;10355;53.688;10.078;2022-12-07T08:20:18;1.60;;;0.98;;
20391;SDS011;10355;53.688;10.078;2022-12-07T08:23:01;3.53;;;1.15;;
20391;SDS011;10355;53.688;10.078;2022-12-07T08:25:44;2.22;;;1.08;;
20391;SDS011;10355;53.688;10.078;2022-12-07T08:28:27;2.10;;;1.20;;
20391;SDS011;10355;53.688;10.078;2022-12-07T08:31:12;7.38;;;1.20;;
20391;SDS011;10355;53.688;10.078;2022-12-07T08:33:55;2.42;;;0.95;;
20391;SDS011;10355;53.688;10.078;2022-12-07T08:36:38;2.72;;;0.80;;
20391;SDS011;10355;53.688;10.078;2022-12-07T08:39:21;4.70;;;1.00;;
20391;SDS011;10355;53.688;10.078;2022-12-07T08:42:12;3.35;;;1.10;;
20391;SDS011;10355;53.688;10.078;2022-12-07T08:44:55;3.20;;;1.05;;
20391;SDS011;10355;53.688;10.078;2022-12-07T08:47:41;1.75;;;1.00;;
20391;SDS011;10355;53.688;10.078;2022-12-07T08:50:26;1.92;;;1.02;;
20391;SDS011;10355;53.688;10.078;2022-12-07T08:53:08;3.60;;;1.05;;
20391;SDS011;10355;53.688;10.078;2022-12-07T08:55:51;3.03;;;1.00;;
20391;SDS011;10355;53.688;10.078;2022-12-07T08:58:34;3.17;;;1.00;;
20391;SDS011;10355;53.688;10.078;2022-12-07T09:01:18;1.35;;;0.90;;
20391;SDS011;10355;53.688;10.078;2022-12-07T09:04:02;2.92;;;1.05;;
20391;SDS011;10355;53.688;10.078;2022-12-07T09:06:45;1.88;;;0.77;;
20391;SDS011;10355;53.688;10.078;2022-12-07T09:09:28;1.52;;;0.93;;
20391;SDS011;10355;53.688;10.078;2022-12-07T09:12:11;2.28;;;1.02;;
20391;SDS011;10355;53.688;10.078;2022-12-07T09:14:54;2.90;;;0.80;;
20391;SDS011;10355;53.688;10.078;2022-12-07T09:17:36;2.80;;;1.10;;
20391;SDS011;10355;53.688;10.078;2022-12-07T09:20:21;4.13;;;1.00;;
20391;SDS011;10355;53.688;10.078;2022-12-07T09:23:08;4.60;;;1.02;;
20391;SDS011;10355;53.688;10.078;2022-12-07T09:25:51;1.15;;;0.75;;
20391;SDS011;10355;53.688;10.078;2022-12-07T09:28:34;4.18;;;0.75;;
20391;SDS011;10355;53.688;10.078;2022-12-07T09:31:16;5.18;;;0.98;;
20391;SDS011;10355;53.688;10.078;2022-12-07T09:34:05;3.00;;;0.85;;
20391;SDS011;10355;53.688;10.078;2022-12-07T09:36:50;1.85;;;1.05;;
20391;SDS011;10355;53.688;10.078;2022-12-07T09:39:33;2.65;;;0.90;;
20391;SDS011;10355;53.688;10.078;2022-12-07T09:42:22;2.92;;;1.00;;
20391;SDS011;10355;53.688;10.078;2022-12-07T09:45:11;2.60;;;0.90;;
20391;SDS011;10355;53.688;10.078;2022-12-07T09:47:55;4.28;;;1.00;;
20391;SDS011;10355;53.688;10.078;2022-12-07T09:50:39;3.22;;;0.80;;
20391;SDS011;10355;53.688;10.078;2022-12-07T09:53:24;1.90;;;0.80;;
20391;SDS011;10355;53.688;10.078;2022-12-07T09:56:08;3.35;;;0.90;;
20391;SDS011;10355;53.688;10.078;2022-12-07T09:58:54;3.47;;;0.90;;
20391;SDS011;10355;53.688;10.078;2022-12-07T10:01:40;1.45;;;0.70;;
20391;SDS011;10355;53.688;10.078;2022-12-07T10:04:25;1.45;;;0.80;;
20391;SDS011;10355;53.688;10.078;2022-12-07T10:07:08;3.40;;;0.95;;
20391;SDS011;10355;53.688;10.078;2022-12-07T10:09:52;2.83;;;1.10;;
20391;SDS011;10355;53.688;10.078;2022-12-07T10:12:44;3.92;;;1.00;;
20391;SDS011;10355;53.688;10.078;2022-12-07T10:15:41;3.20;;;0.80;;
20391;SDS011;10355;53.688;10.078;2022-12-07T10:18:28;1.75;;;0.80;;
20391;SDS011;10355;53.688;10.078;2022-12-07T10:21:12;1.75;;;0.80;;
20391;SDS011;10355;53.688;10.078;2022-12-07T10:23:59;2.67;;;1.00;;
20391;SDS011;10355;53.688;10.078;2022-12-07T10:26:46;3.88;;;1.00;;
20391;SDS011;10355;53.688;10.078;2022-12-07T10:29:33;3.72;;;1.10;;
20391;SDS011;10355;53.688;10.078;2022-12-07T10:32:30;5.35;;;0.90;;
20391;SDS011;10355;53.688;10.078;2022-12-07T10:35:20;3.10;;;0.82;;
20391;SDS011;10355;53.688;10.078;2022-12-07T11:33:40;7.47;;;1.00;;
20391;SDS011;10355;53.688;10.078;2022-12-07T11:36:43;3.22;;;0.90;;
20391;SDS011;10355;53.688;10.078;2022-12-07T11:39:28;3.55;;;0.88;;
20391;SDS011;10355;53.688;10.078;2022-12-07T11:42:13;5.32;;;1.10;;
20391;SDS011;10355;53.688;10.078;2022-12-07T11:44:58;4.45;;;0.90;;
20391;SDS011;10355;53.688;10.078;2022-12-07T11:47:45;5.05;;;0.73;;
20391;SDS011;10355;53.688;10.078;2022-12-07T11:50:32;5.63;;;1.00;;
20391;SDS011;10355;53.688;10.078;2022-12-07T11:53:17;2.85;;;0.80;;
20391;SDS011;10355;53.688;10.078;2022-12-07T11:56:02;3.25;;;0.90;;
20391;SDS011;10355;53.688;10.078;2022-12-07T11:58:48;3.17;;;0.80;;
20391;SDS011;10355;53.688;10.078;2022-12-07T12:01:43;3.95;;;1.05;;
20391;SDS011;10355;53.688;10.078;2022-12-07T12:04:34;2.55;;;0.90;;
20391;SDS011;10355;53.688;10.078;2022-12-07T12:07:23;4.22;;;1.13;;
20391;SDS011;10355;53.688;10.078;2022-12-07T12:10:27;4.40;;;0.90;;
20391;SDS011;10355;53.688;10.078;2022-12-07T12:16:41;5.70;;;0.95;;
20391;SDS011;10355;53.688;10.078;2022-12-07T12:19:30;3.50;;;0.90;;
20391;SDS011;10355;53.688;10.078;2022-12-07T12:22:15;1.10;;;0.52;;
20391;SDS011;10355;53.688;10.078;2022-12-07T12:25:02;3.30;;;0.82;;
20391;SDS011;10355;53.688;10.078;2022-12-07T12:27:46;3.60;;;0.90;;
20391;SDS011;10355;53.688;10.078;2022-12-07T12:30:32;5.10;;;1.05;;
20391;SDS011;10355;53.688;10.078;2022-12-07T12:33:16;3.65;;;0.73;;
20391;SDS011;10355;53.688;10.078;2022-12-07T12:36:16;2.65;;;0.85;;
20391;SDS011;10355;53.688;10.078;2022-12-07T12:39:09;3.97;;;0.73;;
20391;SDS011;10355;53.688;10.078;2022-12-07T12:41:57;2.40;;;0.75;;
20391;SDS011;10355;53.688;10.078;2022-12-07T12:50:45;3.40;;;0.90;;
20391;SDS011;10355;53.688;10.078;2022-12-07T12:53:27;4.82;;;0.80;;
20391;SDS011;10355;53.688;10.078;2022-12-07T12:56:15;5.57;;;0.93;;
20391;SDS011;10355;53.688;10.078;2022-12-07T13:02:19;5.75;;;0.90;;
20391;SDS011;10355;53.688;10.078;2022-12-07T13:05:14;2.42;;;0.90;;
20391;SDS011;10355;53.688;10.078;2022-12-07T13:08:00;1.98;;;0.70;;
20391;SDS011;10355;53.688;10.078;2022-12-07T13:10:44;4.70;;;0.80;;
20391;SDS011;10355;53.688;10.078;2022-12-07T13:13:35;2.75;;;0.60;;
20391;SDS011;10355;53.688;10.078;2022-12-07T13:16:37;3.40;;;0.70;;
20391;SDS011;10355;53.688;10.078;2022-12-07T13:25:40;3.83;;;0.77;;
20391;SDS011;10355;53.688;10.078;2022-12-07T13:28:26;2.33;;;0.70;;
20391;SDS011;10355;53.688;10.078;2022-12-07T13:31:33;2.70;;;0.52;;
20391;SDS011;10355;53.688;10.078;2022-12-07T13:34:27;3.38;;;0.60;;
20391;SDS011;10355;53.688;10.078;2022-12-07T13:37:12;2.55;;;0.70;;
20391;SDS011;10355;53.688;10.078;2022-12-07T13:39:57;0.98;;;0.40;;
20391;SDS011;10355;53.688;10.078;2022-12-07T13:42:43;1.20;;;0.57;;
20391;SDS011;10355;53.688;10.078;2022-12-07T13:45:26;3.35;;;0.57;;
20391;SDS011;10355;53.688;10.078;2022-12-07T13:48:31;1.13;;;0.60;;
20391;SDS011;10355;53.688;10.078;2022-12-07T13:51:19;1.92;;;0.60;;
20391;SDS011;10355;53.688;10.078;2022-12-07T13:54:08;3.50;;;0.60;;
20391;SDS011;10355;53.688;10.078;2022-12-07T13:56:52;2.63;;;0.55;;
20391;SDS011;10355;53.688;10.078;2022-12-07T13:59:37;1.67;;;0.40;;
20391;SDS011;10355;53.688;10.078;2022-12-07T14:02:25;1.23;;;0.60;;
20391;SDS011;10355;53.688;10.078;2022-12-07T14:05:15;2.17;;;0.40;;
20391;SDS011;10355;53.688;10.078;2022-12-07T14:08:05;2.47;;;0.55;;
20391;SDS011;10355;53.688;10.078;2022-12-07T14:11:03;3.20;;;0.80;;
20391;SDS011;10355;53.688;10.078;2022-12-07T14:13:56;1.30;;;0.70;;
20391;SDS011;10355;53.688;10.078;2022-12-07T14:16:40;2.53;;;0.70;;
20391;SDS011;10355;53.688;10.078;2022-12-07T14:19:44;2.63;;;0.70;;
20391;SDS011;10355;53.688;10.078;2022-12-07T14:22:31;3.45;;;0.80;;
20391;SDS011;10355;53.688;10.078;2022-12-07T14:25:19;1.58;;;0.65;;
20391;SDS011;10355;53.688;10.078;2022-12-07T14:28:02;3.92;;;1.45;;
20391;SDS011;10355;53.688;10.078;2022-12-07T14:30:45;4.55;;;1.38;;
20391;SDS011;10355;53.688;10.078;2022-12-07T14:33:29;2.90;;;0.73;;
20391;SDS011;10355;53.688;10.078;2022-12-07T14:36:12;1.95;;;0.60;;
20391;SDS011;10355;53.688;10.078;2022-12-07T14:38:55;1.48;;;0.85;;
20391;SDS011;10355;53.688;10.078;2022-12-07T14:41:41;2.42;;;0.70;;
20391;SDS011;10355;53.688;10.078;2022-12-07T14:44:32;2.38;;;0.70;;
20391;SDS011;10355;53.688;10.078;2022-12-07T14:47:16;3.17;;;0.80;;
20391;SDS011;10355;53.688;10.078;2022-12-07T14:50:20;2.80;;;0.90;;
20391;SDS011;10355;53.688;10.078;2022-12-07T14:53:05;1.30;;;0.57;;
20391;SDS011;10355;53.688;10.078;2022-12-07T14:56:06;4.15;;;0.80;;
20391;SDS011;10355;53.688;10.078;2022-12-07T14:58:48;1.13;;;0.73;;
20391;SDS011;10355;53.688;10.078;2022-12-07T15:01:31;2.35;;;0.82;;
20391;SDS011;10355;53.688;10.078;2022-12-07T15:04:14;2.45;;;0.88;;
20391;SDS011;10355;53.688;10.078;2022-12-07T15:06:59;4.60;;;1.60;;
20391;SDS011;10355;53.688;10.078;2022-12-07T15:09:41;4.18;;;1.52;;
20391;SDS011;10355;53.688;10.078;2022-12-07T15:12:24;3.05;;;1.15;;
20391;SDS011;10355;53.688;10.078;2022-12-07T15:15:07;2.08;;;0.90;;
20391;SDS011;10355;53.688;10.078;2022-12-07T15:17:50;2.17;;;1.05;;
20391;SDS011;10355;53.688;10.078;2022-12-07T15:20:33;4.07;;;0.88;;
20391;SDS011;10355;53.688;10.078;2022-12-07T15:23:17;1.20;;;0.55;;
20391;SDS011;10355;53.688;10.078;2022-12-07T15:26:00;5.57;;;0.82;;
20391;SDS011;10355;53.688;10.078;2022-12-07T15:28:43;4.78;;;0.98;;
20391;SDS011;10355;53.688;10.078;2022-12-07T15:31:25;3.33;;;0.90;;
20391;SDS011;10355;53.688;10.078;2022-12-07T15:34:28;1.38;;;0.70;;
20391;SDS011;10355;53.688;10.078;2022-12-07T15:37:20;3.00;;;0.60;;
20391;SDS011;10355;53.688;10.078;2022-12-07T15:40:05;2.05;;;0.60;;
20391;SDS011;10355;53.688;10.078;2022-12-07T15:42:48;1.58;;;0.68;;
20391;SDS011;10355;53.688;10.078;2022-12-07T15:45:31;5.25;;;0.70;;
20391;SDS011;10355;53.688;10.078;2022-12-07T15:48:13;1.95;;;0.68;;
20391;SDS011;10355;53.688;10.078;2022-12-07T15:51:08;2.53;;;0.50;;
20391;SDS011;10355;53.688;10.078;2022-12-07T15:53:51;1.40;;;0.63;;
20391;SDS011;10355;53.688;10.078;2022-12-07T15:56:35;1.80;;;0.85;;
20391;SDS011;10355;53.688;10.078;2022-12-07T15:59:18;1.98;;;0.90;;
20391;SDS011;10355;53.688;10.078;2022-12-07T16:02:01;2.47;;;0.70;;
20391;SDS011;10355;53.688;10.078;2022-12-07T16:04:44;2.35;;;0.57;;
20391;SDS011;10355;53.688;10.078;2022-12-07T16:07:27;1.70;;;0.60;;
20391;SDS011;10355;53.688;10.078;2022-12-07T16:10:10;2.35;;;0.70;;
20391;SDS011;10355;53.688;10.078;2022-12-07T16:12:54;2.15;;;0.88;;
20391;SDS011;10355;53.688;10.078;2022-12-07T16:15:37;3.97;;;1.38;;
20391;SDS011;10355;53.688;10.078;2022-12-07T16:18:20;3.90;;;1.20;;
20391;SDS011;10355;53.688;10.078;2022-12-07T16:21:03;1.50;;;0.85;;
20391;SDS011;10355;53.688;10.078;2022-12-07T16:23:46;4.72;;;1.73;;
20391;SDS011;10355;53.688;10.078;2022-12-07T16:26:29;4.15;;;1.60;;
20391;SDS011;10355;53.688;10.078;2022-12-07T16:29:13;2.78;;;1.50;;
20391;SDS011;10355;53.688;10.078;2022-12-07T16:31:56;2.75;;;1.30;;
20391;SDS011;10355;53.688;10.078;2022-12-07T16:34:39;3.88;;;1.30;;
20391;SDS011;10355;53.688;10.078;2022-12-07T16:37:22;2.08;;;0.98;;
20391;SDS011;10355;53.688;10.078;2022-12-07T16:40:05;4.47;;;1.13;;
20391;SDS011;10355;53.688;10.078;2022-12-07T16:42:48;4.47;;;0.88;;
20391;SDS011;10355;53.688;10.078;2022-12-07T16:45:32;3.25;;;1.13;;
20391;SDS011;10355;53.688;10.078;2022-12-07T16:48:15;2.17;;;1.05;;
20391;SDS011;10355;53.688;10.078;2022-12-07T16:50:58;3.47;;;1.25;;
20391;SDS011;10355;53.688;10.078;2022-12-07T16:53:44;3.22;;;0.93;;
20391;SDS011;10355;53.688;10.078;2022-12-07T16:56:27;1.58;;;1.13;;
20391;SDS011;10355;53.688;10.078;2022-12-07T16:59:10;2.33;;;0.90;;
20391;SDS011;10355;53.688;10.078;2022-12-07T17:01:54;3.80;;;1.08;;
20391;SDS011;10355;53.688;10.078;2022-12-07T17:04:37;4.35;;;1.23;;
20391;SDS011;10355;53.688;10.078;2022-12-07T17:07:20;4.38;;;1.70;;
20391;SDS011;10355;53.688;10.078;2022-12-07T17:10:04;5.07;;;2.00;;
20391;SDS011;10355;53.688;10.078;2022-12-07T17:12:47;3.78;;;2.35;;
20391;SDS011;10355;53.688;10.078;2022-12-07T17:15:29;4.50;;;2.50;;
20391;SDS011;10355;53.688;10.078;2022-12-07T17:18:13;7.35;;;3.00;;
20391;SDS011;10355;53.688;10.078;2022-12-07T17:20:55;4.85;;;2.83;;
20391;SDS011;10355;53.688;10.078;2022-12-07T17:23:45;2.42;;;1.63;;
20391;SDS011;10355;53.688;10.078;2022-12-07T17:26:28;4.22;;;1.95;;
20391;SDS011;10355;53.688;10.078;2022-12-07T17:29:17;3.47;;;2.00;;
20391;SDS011;10355;53.688;10.078;2022-12-07T17:32:00;6.13;;;2.10;;
20391;SDS011;10355;53.688;10.078;2022-12-07T17:34:44;3.25;;;1.90;;
20391;SDS011;10355;53.688;10.078;2022-12-07T17:37:27;2.70;;;1.40;;